Ship Status Report: callsign CSYF4

sailwx.info

Track history (hours):
 
Tides and Currents Weather Stations Pressure Air Temp Water Temp Dewpoint Dewpoint Depression Visibility Wind Speed Wind Dir Waves Ship Positions

Callsign CSYF4 (name unknown)

Last reported at 2017-Sep-02 23:55 UTC. Time now 2017-Nov-17 17:50 UTC.
Position N 38°42' W 009°14'.
Warning: this ship's position is months out of date.

Date/timePositionNaut miles runAvg speedWind from/ knotsBaromVisibWave heightAir tempDewpointWater temp
2017-Sep-02 23:55N 38°42' W 009°14'0 0.0
2017-Sep-02 23:16N 38°42' W 009°14'0 0.0
2017-Sep-02 22:40N 38°42' W 009°14'0 0.0
2017-Sep-02 22:16N 38°42' W 009°14'0 0.0
2017-Sep-02 21:56N 38°42' W 009°14'2 4.3
2017-Sep-02 21:29N 38°41' W 009°12'2 3.4
2017-Sep-02 20:56N 38°42' W 009°14'0 0.0
2017-Sep-02 20:25N 38°42' W 009°14'0 0.0
2017-Sep-02 19:19N 38°42' W 009°14'1 2.3
2017-Sep-02 18:50N 38°41' W 009°13'1 2.0
2017-Sep-02 18:16N 38°42' W 009°14'0 0.0
2017-Sep-02 17:46N 38°42' W 009°14'0 0.0
2017-Sep-02 16:40N 38°42' W 009°14'211.0
2017-Sep-02 16:29N 38°41' W 009°12'1 2.1
2017-Sep-02 15:55N 38°41' W 009°10'3 1.3
2017-Sep-02 13:28N 38°42' W 009°14'0 0.0
2017-Sep-02 12:58N 38°42' W 009°14'0 0.0
2017-Sep-02 12:16N 38°42' W 009°14'0 0.0
2017-Sep-02 09:55N 38°42' W 009°14'0 0.0
2017-Sep-02 09:28N 38°42' W 009°14'0 0.0
2017-Sep-02 08:49N 38°42' W 009°14'1 2.2
2017-Sep-02 08:30N 38°41' W 009°13'1 0.7
2017-Sep-02 07:28N 38°42' W 009°14'0 0.0
2017-Sep-02 07:00N 38°42' W 009°14'1 1.2
2017-Sep-02 06:29N 38°41' W 009°14'1 0.9
2017-Sep-02 05:51N 38°42' W 009°14'0 0.1
2017-Sep-02 05:30N 38°42' W 009°14'0 0.9
2017-Sep-02 05:00N 38°41' W 009°14'0 0.4
2017-Sep-02 03:50N 38°42' W 009°14'0 0.0
2017-Sep-02 03:26N 38°42' W 009°14'0 0.0
2017-Sep-02 02:50N 38°42' W 009°14'0 0.0
2017-Sep-02 02:20N 38°42' W 009°14'0 0.0
2017-Sep-02 01:50N 38°42' W 009°14'0 0.0
2017-Sep-02 01:29N 38°42' W 009°14'0 0.0
2017-Sep-02 00:29N 38°42' W 009°14'0 0.0
2017-Sep-01 23:41N 38°42' W 009°14'0 0.0
2017-Sep-01 23:17N 38°42' W 009°14'0 0.0
2017-Sep-01 22:45N 38°42' W 009°14'0 0.0
2017-Sep-01 22:28N 38°42' W 009°14'0 0.0
2017-Sep-01 21:54N 38°42' W 009°14'2 5.4
2017-Sep-01 21:30N 38°41' W 009°11'2 4.4
2017-Sep-01 21:00N 38°42' W 009°14'0 0.0
2017-Sep-01 20:30N 38°42' W 009°14'0 0.0
2017-Sep-01 19:09N 38°42' W 009°14'0 0.0
2017-Sep-01 18:57N 38°42' W 009°14'0 0.0
2017-Sep-01 17:55N 38°42' W 009°14'0 0.6
2017-Sep-01 17:10N 38°41' W 009°14'0 0.7
2017-Sep-01 17:00N 38°41' W 009°14'1 1.0
2017-Sep-01 16:26N 38°42' W 009°14'0 0.0
2017-Sep-01 16:00N 38°42' W 009°14'1 2.4
2017-Sep-01 15:27N 38°41' W 009°13'1 2.7
2017-Sep-01 14:59N 38°42' W 009°14'0 0.0
2017-Sep-01 14:18N 38°42' W 009°14'0 0.0
2017-Sep-01 14:00N 38°42' W 009°14'0 0.0
2017-Sep-01 13:13N 38°42' W 009°14'313.7
2017-Sep-01 12:58N 38°42' W 009°10'1 2.6
2017-Sep-01 12:29N 38°41' W 009°11'2 4.3
2017-Sep-01 11:57N 38°42' W 009°14'1 2.8
2017-Sep-01 11:30N 38°41' W 009°13'1 2.1
2017-Sep-01 10:55N 38°42' W 009°14'0 0.0
2017-Sep-01 10:25N 38°42' W 009°14'0 0.0
2017-Sep-01 09:25N 38°42' W 009°14'0 0.8
2017-Sep-01 08:55N 38°41' W 009°14'0 0.5
2017-Sep-01 08:06N 38°42' W 009°14'1 5.8
2017-Sep-01 07:58N 38°41' W 009°13'0 0.4
2017-Sep-01 07:25N 38°41' W 009°14'1 1.2
2017-Sep-01 06:56N 38°42' W 009°14'0 0.0
2017-Sep-01 06:29N 38°42' W 009°14'0 0.0
2017-Sep-01 05:59N 38°42' W 009°14'0 0.0
2017-Sep-01 05:29N 38°42' W 009°14'0 0.1
2017-Sep-01 00:16N 38°41' W 009°14'0 1.3
2017-Aug-31 23:55N 38°42' W 009°14'1 0.6
2017-Aug-31 22:57N 38°41' W 009°14'0 0.7
2017-Aug-31 22:20N 38°42' W 009°14'2 6.3
2017-Aug-31 21:58N 38°41' W 009°11'2 2.8
2017-Aug-31 21:06N 38°42' W 009°14'0 0.0
2017-Aug-31 20:48N 38°42' W 009°14'0 0.0
2017-Aug-31 20:24N 38°42' W 009°14'0 0.0
2017-Aug-31 19:51N 38°42' W 009°14'0 0.0
2017-Aug-31 18:42N 38°42' W 009°14'0 0.0
2017-Aug-31 18:24N 38°42' W 009°14'0 0.0
2017-Aug-31 17:39N 38°42' W 009°14'0 0.0
2017-Aug-31 17:27N 38°42' W 009°14'0 0.0
2017-Aug-31 16:28N 38°42' W 009°14'0 0.0
2017-Aug-31 15:35N 38°42' W 009°14'0 0.0
2017-Aug-31 15:17N 38°42' W 009°14'0 0.0
2017-Aug-31 14:59N 38°42' W 009°14'0 0.0
2017-Aug-31 14:20N 38°42' W 009°14'0 0.0
2017-Aug-31 13:39N 38°42' W 009°14'0 0.0
2017-Aug-31 12:26N 38°42' W 009°14'0 0.0
2017-Aug-31 12:00N 38°42' W 009°14'0 0.0
2017-Aug-31 11:15N 38°42' W 009°14'0 0.0
2017-Aug-31 10:57N 38°42' W 009°14'0 0.0
2017-Aug-31 10:18N 38°42' W 009°14'0 0.0
2017-Aug-31 10:00N 38°42' W 009°14'0 0.0
2017-Aug-31 09:26N 38°42' W 009°14'0 0.0
2017-Aug-31 08:59N 38°42' W 009°14'0 0.0
2017-Aug-31 08:29N 38°42' W 009°14'0 0.0
2017-Aug-31 08:00N 38°42' W 009°14'0 0.0
2017-Aug-31 07:14N 38°42' W 009°14'0 0.0
2017-Aug-31 06:59N 38°42' W 009°14'1 1.2
2017-Aug-31 06:30N 38°41' W 009°14'1 0.9
2017-Aug-31 05:52N 38°42' W 009°14'1 3.8
2017-Aug-31 05:29N 38°41' W 009°12'1 0.4
2017-Aug-31 02:10N 38°42' W 009°14'0 0.0
2017-Aug-31 01:58N 38°42' W 009°14'1 2.9
2017-Aug-31 01:30N 38°41' W 009°13'1 2.5
2017-Aug-31 00:58N 38°42' W 009°14'1 0.9
2017-Aug-30 23:44N 38°41' W 009°13'1 3.0
2017-Aug-30 23:23N 38°42' W 009°14'0 0.0
2017-Aug-30 22:53N 38°42' W 009°14'0 0.0
2017-Aug-30 22:23N 38°42' W 009°14'0 0.0
2017-Aug-30 21:57N 38°42' W 009°14'0 0.0
2017-Aug-30 21:24N 38°42' W 009°14'0 0.0
2017-Aug-30 20:06N 38°42' W 009°14'0 0.0
2017-Aug-30 19:33N 38°42' W 009°14'0 0.0
2017-Aug-30 19:21N 38°42' W 009°14'0 0.0
2017-Aug-30 19:00N 38°42' W 009°14'0 0.0
2017-Aug-30 18:27N 38°42' W 009°14'0 0.0
2017-Aug-30 17:45N 38°42' W 009°14'0 0.0
2017-Aug-30 17:27N 38°42' W 009°14'0 0.0
2017-Aug-30 16:57N 38°42' W 009°14'0 0.0
2017-Aug-30 16:27N 38°42' W 009°14'1 2.4
2017-Aug-30 15:58N 38°41' W 009°13'0 1.0
2017-Aug-30 15:30N 38°41' W 009°13'1 0.8
2017-Aug-30 14:37N 38°42' W 009°14'0 0.0
2017-Aug-30 14:19N 38°42' W 009°14'0 0.0
2017-Aug-30 13:34N 38°42' W 009°14'0 0.0
2017-Aug-30 13:22N 38°42' W 009°14'0 0.0
2017-Aug-30 12:55N 38°42' W 009°14'0 0.0
2017-Aug-30 12:25N 38°42' W 009°14'0 0.0
2017-Aug-30 11:55N 38°42' W 009°14'0 0.0
2017-Aug-30 11:25N 38°42' W 009°14'0 0.0
2017-Aug-30 10:58N 38°42' W 009°14'0 0.0
2017-Aug-30 10:09N 38°42' W 009°14'1 9.3
2017-Aug-30 10:00N 38°41' W 009°13'1 1.6
2017-Aug-30 09:28N 38°41' W 009°12'1 2.3
2017-Aug-30 09:00N 38°41' W 009°13'1 1.8
2017-Aug-30 08:18N 38°42' W 009°14'0 0.0
2017-Aug-30 07:46N 38°42' W 009°14'0 0.0
2017-Aug-30 07:19N 38°42' W 009°14'1 1.8
2017-Aug-30 06:59N 38°41' W 009°14'1 1.1
2017-Aug-30 06:28N 38°42' W 009°14'0 0.3
2017-Aug-30 05:59N 38°42' W 009°14'0 1.0
2017-Aug-30 05:30N 38°41' W 009°13'0 0.1
2017-Aug-29 23:08N 38°42' W 009°14'1 3.6
2017-Aug-29 22:59N 38°41' W 009°13'1 1.2
2017-Aug-29 22:23N 38°42' W 009°14'0 0.2
2017-Aug-29 21:58N 38°42' W 009°14'0 0.1
2017-Aug-29 21:21N 38°42' W 009°14'2 6.9
2017-Aug-29 21:00N 38°41' W 009°11'2 3.6
2017-Aug-29 20:20N 38°42' W 009°14'0 0.0
2017-Aug-29 19:56N 38°42' W 009°14'0 0.0
2017-Aug-29 19:05N 38°42' W 009°14'0 0.0
2017-Aug-29 18:53N 38°42' W 009°14'0 0.0
2017-Aug-29 18:17N 38°42' W 009°14'0 0.0
2017-Aug-29 17:02N 38°42' W 009°14'0 0.0
2017-Aug-29 16:59N 38°42' W 009°14'0 0.0
2017-Aug-29 16:20N 38°42' W 009°14'1 2.9
2017-Aug-29 16:00N 38°41' W 009°13'1 1.7
2017-Aug-29 15:25N 38°42' W 009°14'0 0.0
2017-Aug-29 14:52N 38°42' W 009°14'0 1.1
2017-Aug-29 14:30N 38°41' W 009°14'0 0.7
2017-Aug-29 13:52N 38°42' W 009°14'1 2.4
2017-Aug-29 13:29N 38°41' W 009°13'1 1.7
2017-Aug-29 12:56N 38°42' W 009°14'0 0.0
2017-Aug-29 12:17N 38°42' W 009°14'0 0.0
2017-Aug-29 11:05N 38°42' W 009°14'0 0.0
2017-Aug-29 09:50N 38°42' W 009°14'0 0.0
2017-Aug-29 08:53N 38°42' W 009°14'0 0.0
2017-Aug-29 08:03N 38°42' W 009°14'0 5.1
2017-Aug-29 07:59N 38°42' W 009°14'1 1.5
2017-Aug-29 07:28N 38°41' W 009°13'1 1.4
2017-Aug-29 06:41N 38°42' W 009°14'0 0.0
2017-Aug-29 06:17N 38°42' W 009°14'0 0.0
2017-Aug-29 06:00N 38°42' W 009°14'0 0.2
2017-Aug-29 05:30N 38°42' W 009°14'0 0.4
2017-Aug-29 04:59N 38°42' W 009°14'0 0.4
2017-Aug-29 04:21N 38°42' W 009°14'0 0.0
2017-Aug-29 03:51N 38°42' W 009°14'0 0.0
2017-Aug-29 03:30N 38°42' W 009°14'0 0.0
2017-Aug-29 02:33N 38°42' W 009°14'0 0.0
2017-Aug-28 23:49N 38°42' W 009°14'0 0.0
2017-Aug-28 23:19N 38°42' W 009°14'0 0.0
2017-Aug-28 22:53N 38°42' W 009°14'0 0.0
2017-Aug-28 22:20N 38°42' W 009°14'0 0.0
2017-Aug-28 21:56N 38°42' W 009°14'1 1.8
2017-Aug-28 21:10N 38°41' W 009°13'1 3.9
2017-Aug-28 20:54N 38°41' W 009°14'1 1.1
2017-Aug-28 20:17N 38°42' W 009°14'0 0.0
2017-Aug-28 19:56N 38°42' W 009°14'0 0.0
2017-Aug-28 19:26N 38°42' W 009°14'0 0.0
2017-Aug-28 18:59N 38°42' W 009°14'0 0.3
2017-Aug-28 18:25N 38°42' W 009°14'0 0.3
2017-Aug-28 17:52N 38°42' W 009°14'0 0.0
2017-Aug-28 16:58N 38°42' W 009°14'0 0.0
2017-Aug-28 16:28N 38°42' W 009°14'1 2.4
2017-Aug-28 15:57N 38°41' W 009°14'1 1.2
2017-Aug-28 14:56N 38°42' W 009°14'2 1.6
2017-Aug-28 13:45N 38°42' W 009°12'2 3.7
2017-Aug-28 13:15N 38°42' W 009°14'0 0.0
2017-Aug-28 12:17N 38°42' W 009°14'1 4.5
2017-Aug-28 11:59N 38°41' W 009°13'1 2.8
2017-Aug-28 11:29N 38°42' W 009°14'0 0.0
2017-Aug-28 10:41N 38°42' W 009°14'0 0.0
2017-Aug-28 10:29N 38°42' W 009°14'0 0.0
2017-Aug-28 09:26N 38°42' W 009°14'2 2.2
2017-Aug-28 08:29N 38°41' W 009°12'2 4.3
2017-Aug-28 07:58N 38°42' W 009°14'3 3.2
2017-Aug-28 07:10N 38°42' W 009°11'316.2
2017-Aug-28 07:00N 38°42' W 009°14'0 0.2
2017-Aug-28 06:23N 38°42' W 009°14'0 0.0
2017-Aug-28 05:58N 38°42' W 009°14'0 0.0
2017-Aug-28 05:09N 38°42' W 009°14'0 0.0
2017-Aug-28 04:58N 38°42' W 009°14'0 0.0
2017-Aug-28 03:20N 38°42' W 009°14'0 0.0
2017-Aug-28 02:32N 38°42' W 009°14'0 0.0
2017-Aug-28 02:20N 38°42' W 009°14'0 0.0
2017-Aug-28 01:56N 38°42' W 009°14'0 0.0
2017-Aug-28 00:44N 38°42' W 009°14'0 0.0
2017-Aug-28 00:20N 38°42' W 009°14'0 0.0
2017-Aug-27 23:59N 38°42' W 009°14'0 0.0
2017-Aug-27 23:20N 38°42' W 009°14'0 0.0
2017-Aug-27 22:53N 38°42' W 009°14'0 0.0
2017-Aug-27 22:27N 38°42' W 009°14'0 0.1
2017-Aug-27 21:44N 38°42' W 009°14'0 0.2
2017-Aug-27 21:27N 38°42' W 009°14'0 0.5
2017-Aug-27 20:55N 38°41' W 009°14'0 0.2
2017-Aug-27 19:52N 38°42' W 009°14'0 0.0
2017-Aug-27 17:46N 38°42' W 009°14'0 0.5
2017-Aug-27 17:23N 38°42' W 009°14'0 0.1
2017-Aug-27 14:45N 38°42' W 009°14'0 0.0
2017-Aug-27 14:15N 38°42' W 009°14'0 0.0
2017-Aug-27 13:00N 38°42' W 009°14'0 0.0
2017-Aug-27 11:33N 38°42' W 009°14'0 0.0
2017-Aug-27 11:03N 38°42' W 009°14'0 0.0
2017-Aug-27 10:57N 38°42' W 009°14'0 0.0
2017-Aug-27 10:21N 38°42' W 009°14'0 0.0
2017-Aug-27 09:48N 38°42' W 009°14'0 0.0
2017-Aug-27 08:42N 38°42' W 009°14'0 0.0
2017-Aug-27 08:24N 38°42' W 009°14'0 0.0
2017-Aug-27 08:00N 38°42' W 009°14'0 0.0
2017-Aug-27 07:22N 38°42' W 009°14'0 0.0
2017-Aug-27 06:54N 38°42' W 009°14'0 0.0
2017-Aug-27 06:07N 38°42' W 009°14'1 8.3
2017-Aug-27 06:00N 38°41' W 009°13'1 1.3
2017-Aug-27 05:14N 38°42' W 009°14'0 0.0
2017-Aug-27 04:56N 38°42' W 009°14'0 0.0
2017-Aug-27 04:17N 38°42' W 009°14'0 0.0
2017-Aug-27 03:56N 38°42' W 009°14'0 0.0
2017-Aug-27 02:50N 38°42' W 009°14'0 0.0
2017-Aug-27 02:29N 38°42' W 009°14'0 0.0
2017-Aug-27 01:05N 38°42' W 009°14'0 0.0
2017-Aug-27 00:50N 38°42' W 009°14'0 0.0
2017-Aug-27 00:26N 38°42' W 009°14'0 0.0
2017-Aug-26 22:59N 38°42' W 009°14'0 0.0
2017-Aug-26 22:29N 38°42' W 009°14'0 0.0
2017-Aug-26 21:44N 38°42' W 009°14'0 0.0
2017-Aug-26 21:29N 38°42' W 009°14'0 0.0
2017-Aug-26 20:53N 38°42' W 009°14'0 0.0
2017-Aug-26 20:24N 38°42' W 009°14'0 0.0
2017-Aug-26 16:36N 38°42' W 009°14'0 0.0
2017-Aug-26 16:28N 38°42' W 009°14'0 0.0
2017-Aug-26 16:00N 38°42' W 009°14'2 3.6
2017-Aug-26 15:29N 38°41' W 009°12'2 2.7
2017-Aug-26 14:48N 38°42' W 009°14'0 0.0
2017-Aug-26 13:59N 38°42' W 009°14'0 0.0
2017-Aug-26 12:50N 38°42' W 009°14'0 0.0
2017-Aug-26 09:59N 38°42' W 009°14'0 0.0
2017-Aug-26 09:14N 38°42' W 009°14'0 0.0
2017-Aug-26 08:47N 38°42' W 009°14'0 0.0
2017-Aug-26 08:23N 38°42' W 009°14'0 0.0
2017-Aug-26 07:59N 38°42' W 009°14'0 0.1
2017-Aug-26 07:30N 38°42' W 009°14'2 4.3
2017-Aug-26 06:57N 38°41' W 009°11'2 4.2
2017-Aug-26 06:23N 38°42' W 009°14'0 0.0
2017-Aug-26 05:47N 38°42' W 009°14'0 0.0
2017-Aug-26 05:20N 38°42' W 009°14'0 0.0
2017-Aug-26 04:59N 38°42' W 009°14'0 0.0
2017-Aug-26 04:29N 38°42' W 009°14'0 0.0
2017-Aug-26 03:43N 38°42' W 009°14'0 0.0
2017-Aug-26 03:19N 38°42' W 009°14'0 0.0
2017-Aug-26 02:58N 38°42' W 009°14'0 0.0
2017-Aug-26 02:25N 38°42' W 009°14'0 0.0
2017-Aug-26 01:49N 38°42' W 009°14'0 0.0
2017-Aug-26 01:19N 38°42' W 009°14'0 0.0
2017-Aug-26 00:52N 38°42' W 009°14'0 0.0
2017-Aug-26 00:19N 38°42' W 009°14'0 0.0
2017-Aug-25 23:55N 38°42' W 009°14'0 0.0
2017-Aug-25 23:28N 38°42' W 009°14'0 0.0
2017-Aug-25 22:55N 38°42' W 009°14'0 0.0
2017-Aug-25 22:25N 38°42' W 009°14'1 1.5
2017-Aug-25 21:57N 38°41' W 009°13'1 0.8
2017-Aug-25 21:02N 38°42' W 009°14'0 0.0
2017-Aug-25 20:50N 38°42' W 009°14'1 2.0
2017-Aug-25 20:30N 38°41' W 009°13'1 1.2
2017-Aug-25 19:55N 38°42' W 009°14'0 0.0
2017-Aug-25 19:25N 38°42' W 009°14'0 0.0
2017-Aug-25 18:55N 38°42' W 009°14'0 0.0
2017-Aug-25 18:25N 38°42' W 009°14'0 0.3
2017-Aug-25 17:59N 38°42' W 009°14'0 0.1
2017-Aug-25 17:28N 38°42' W 009°14'5 8.9
2017-Aug-25 16:57N 38°42' W 009°08'5 9.9
2017-Aug-25 16:30N 38°42' W 009°14'1 2.6
2017-Aug-25 16:00N 38°41' W 009°12'1 1.9
2017-Aug-25 15:29N 38°41' W 009°14'0 0.9
2017-Aug-25 15:00N 38°42' W 009°14'4 8.0
2017-Aug-25 14:30N 38°42' W 009°09'4 2.2
2017-Aug-25 12:39N 38°42' W 009°14'0 0.0
2017-Aug-25 12:27N 38°42' W 009°14'0 0.0
2017-Aug-25 11:45N 38°42' W 009°14'0 0.0
2017-Aug-25 11:15N 38°42' W 009°14'0 0.0
2017-Aug-25 10:51N 38°42' W 009°14'0 0.0
2017-Aug-25 09:45N 38°42' W 009°14'1 2.6
2017-Aug-25 09:29N 38°41' W 009°13'2 3.1
2017-Aug-25 09:00N 38°41' W 009°12'2 3.8
2017-Aug-25 08:30N 38°42' W 009°14'0 0.5
2017-Aug-25 08:00N 38°42' W 009°14'0 0.0
2017-Aug-25 07:27N 38°42' W 009°14'0 0.0
2017-Aug-25 05:08N 38°42' W 009°14'0 1.4
2017-Aug-25 04:59N 38°42' W 009°14'0 0.3
2017-Aug-25 04:17N 38°42' W 009°14'0 0.1
2017-Aug-25 03:59N 38°42' W 009°14'0 0.0
2017-Aug-25 03:24N 38°42' W 009°14'0 0.0
2017-Aug-25 03:00N 38°42' W 009°14'0 0.0
2017-Aug-25 02:18N 38°42' W 009°14'0 1.2
2017-Aug-25 02:01N 38°42' W 009°14'0 0.1
2017-Aug-24 21:24N 38°42' W 009°14'1 1.4
2017-Aug-24 21:00N 38°41' W 009°14'1 1.0
2017-Aug-24 20:24N 38°42' W 009°14'0 0.0
2017-Aug-24 19:30N 38°42' W 009°14'0 0.0
2017-Aug-24 18:54N 38°42' W 009°14'0 0.0
2017-Aug-24 17:24N 38°42' W 009°14'1 2.0
2017-Aug-24 16:59N 38°41' W 009°13'1 1.5
2017-Aug-24 16:28N 38°42' W 009°14'0 0.0
2017-Aug-24 15:34N 38°42' W 009°14'0 0.0
2017-Aug-24 15:13N 38°42' W 009°14'0 0.0
2017-Aug-24 14:58N 38°42' W 009°14'0 0.0
2017-Aug-24 14:25N 38°42' W 009°14'0 0.0
2017-Aug-24 13:57N 38°42' W 009°14'0 0.0
2017-Aug-24 13:28N 38°42' W 009°14'510.5
2017-Aug-24 12:57N 38°42' W 009°07'5 8.6
2017-Aug-24 12:19N 38°42' W 009°14'0 0.0
2017-Aug-24 11:58N 38°42' W 009°14'2 3.9
2017-Aug-24 11:21N 38°41' W 009°11'0 0.2
2017-Aug-24 11:00N 38°41' W 009°11'2 4.7
2017-Aug-24 10:29N 38°42' W 009°14'2 3.2
2017-Aug-24 09:56N 38°41' W 009°12'0 0.5
2017-Aug-24 09:28N 38°41' W 009°12'2 0.7
2017-Aug-24 07:18N 38°42' W 009°14'0 0.0
2017-Aug-24 06:07N 38°42' W 009°14'0 2.8
2017-Aug-24 05:58N 38°41' W 009°14'0 0.9
2017-Aug-24 05:29N 38°42' W 009°14'0 0.0
2017-Aug-24 00:11N 38°42' W 009°14'2 8.8
2017-Aug-24 00:00N 38°41' W 009°13'  
Track history (hours):
 
Tides and Currents Weather Stations Pressure Air Temp Water Temp Dewpoint Dewpoint Depression Visibility Wind Speed Wind Dir Waves Ship Positions

Callsign CSYF4 (name unknown)

Last reported at 2017-Sep-02 23:55 UTC. Time now 2017-Nov-17 17:50 UTC.
Position N 38°42' W 009°14'.
Warning: this ship's position is months out of date.

Date/timePositionNaut miles runAvg speedWind from/ knotsBaromVisibWave heightAir tempDewpointWater temp
2017-Sep-02 23:55N 38°42' W 009°14'0 0.0
2017-Sep-02 23:16N 38°42' W 009°14'0 0.0
2017-Sep-02 22:40N 38°42' W 009°14'0 0.0
2017-Sep-02 22:16N 38°42' W 009°14'0 0.0
2017-Sep-02 21:56N 38°42' W 009°14'2 4.3
2017-Sep-02 21:29N 38°41' W 009°12'2 3.4
2017-Sep-02 20:56N 38°42' W 009°14'0 0.0
2017-Sep-02 20:25N 38°42' W 009°14'0 0.0
2017-Sep-02 19:19N 38°42' W 009°14'1 2.3
2017-Sep-02 18:50N 38°41' W 009°13'1 2.0
2017-Sep-02 18:16N 38°42' W 009°14'0 0.0
2017-Sep-02 17:46N 38°42' W 009°14'0 0.0
2017-Sep-02 16:40N 38°42' W 009°14'211.0
2017-Sep-02 16:29N 38°41' W 009°12'1 2.1
2017-Sep-02 15:55N 38°41' W 009°10'3 1.3
2017-Sep-02 13:28N 38°42' W 009°14'0 0.0
2017-Sep-02 12:58N 38°42' W 009°14'0 0.0
2017-Sep-02 12:16N 38°42' W 009°14'0 0.0
2017-Sep-02 09:55N 38°42' W 009°14'0 0.0
2017-Sep-02 09:28N 38°42' W 009°14'0 0.0
2017-Sep-02 08:49N 38°42' W 009°14'1 2.2
2017-Sep-02 08:30N 38°41' W 009°13'1 0.7
2017-Sep-02 07:28N 38°42' W 009°14'0 0.0
2017-Sep-02 07:00N 38°42' W 009°14'1 1.2
2017-Sep-02 06:29N 38°41' W 009°14'1 0.9
2017-Sep-02 05:51N 38°42' W 009°14'0 0.1
2017-Sep-02 05:30N 38°42' W 009°14'0 0.9
2017-Sep-02 05:00N 38°41' W 009°14'0 0.4
2017-Sep-02 03:50N 38°42' W 009°14'0 0.0
2017-Sep-02 03:26N 38°42' W 009°14'0 0.0
2017-Sep-02 02:50N 38°42' W 009°14'0 0.0
2017-Sep-02 02:20N 38°42' W 009°14'0 0.0
2017-Sep-02 01:50N 38°42' W 009°14'0 0.0
2017-Sep-02 01:29N 38°42' W 009°14'0 0.0
2017-Sep-02 00:29N 38°42' W 009°14'0 0.0
2017-Sep-01 23:41N 38°42' W 009°14'0 0.0
2017-Sep-01 23:17N 38°42' W 009°14'0 0.0
2017-Sep-01 22:45N 38°42' W 009°14'0 0.0
2017-Sep-01 22:28N 38°42' W 009°14'0 0.0
2017-Sep-01 21:54N 38°42' W 009°14'2 5.4
2017-Sep-01 21:30N 38°41' W 009°11'2 4.4
2017-Sep-01 21:00N 38°42' W 009°14'0 0.0
2017-Sep-01 20:30N 38°42' W 009°14'0 0.0
2017-Sep-01 19:09N 38°42' W 009°14'0 0.0
2017-Sep-01 18:57N 38°42' W 009°14'0 0.0
2017-Sep-01 17:55N 38°42' W 009°14'0 0.6
2017-Sep-01 17:10N 38°41' W 009°14'0 0.7
2017-Sep-01 17:00N 38°41' W 009°14'1 1.0
2017-Sep-01 16:26N 38°42' W 009°14'0 0.0
2017-Sep-01 16:00N 38°42' W 009°14'1 2.4
2017-Sep-01 15:27N 38°41' W 009°13'1 2.7
2017-Sep-01 14:59N 38°42' W 009°14'0 0.0
2017-Sep-01 14:18N 38°42' W 009°14'0 0.0
2017-Sep-01 14:00N 38°42' W 009°14'0 0.0
2017-Sep-01 13:13N 38°42' W 009°14'313.7
2017-Sep-01 12:58N 38°42' W 009°10'1 2.6
2017-Sep-01 12:29N 38°41' W 009°11'2 4.3
2017-Sep-01 11:57N 38°42' W 009°14'1 2.8
2017-Sep-01 11:30N 38°41' W 009°13'1 2.1
2017-Sep-01 10:55N 38°42' W 009°14'0 0.0
2017-Sep-01 10:25N 38°42' W 009°14'0 0.0
2017-Sep-01 09:25N 38°42' W 009°14'0 0.8
2017-Sep-01 08:55N 38°41' W 009°14'0 0.5
2017-Sep-01 08:06N 38°42' W 009°14'1 5.8
2017-Sep-01 07:58N 38°41' W 009°13'0 0.4
2017-Sep-01 07:25N 38°41' W 009°14'1 1.2
2017-Sep-01 06:56N 38°42' W 009°14'0 0.0
2017-Sep-01 06:29N 38°42' W 009°14'0 0.0
2017-Sep-01 05:59N 38°42' W 009°14'0 0.0
2017-Sep-01 05:29N 38°42' W 009°14'0 0.1
2017-Sep-01 00:16N 38°41' W 009°14'0 1.3
2017-Aug-31 23:55N 38°42' W 009°14'1 0.6
2017-Aug-31 22:57N 38°41' W 009°14'0 0.7
2017-Aug-31 22:20N 38°42' W 009°14'2 6.3
2017-Aug-31 21:58N 38°41' W 009°11'2 2.8
2017-Aug-31 21:06N 38°42' W 009°14'0 0.0
2017-Aug-31 20:48N 38°42' W 009°14'0 0.0
2017-Aug-31 20:24N 38°42' W 009°14'0 0.0
2017-Aug-31 19:51N 38°42' W 009°14'0 0.0
2017-Aug-31 18:42N 38°42' W 009°14'0 0.0
2017-Aug-31 18:24N 38°42' W 009°14'0 0.0
2017-Aug-31 17:39N 38°42' W 009°14'0 0.0
2017-Aug-31 17:27N 38°42' W 009°14'0 0.0
2017-Aug-31 16:28N 38°42' W 009°14'0 0.0
2017-Aug-31 15:35N 38°42' W 009°14'0 0.0
2017-Aug-31 15:17N 38°42' W 009°14'0 0.0
2017-Aug-31 14:59N 38°42' W 009°14'0 0.0
2017-Aug-31 14:20N 38°42' W 009°14'0 0.0
2017-Aug-31 13:39N 38°42' W 009°14'0 0.0
2017-Aug-31 12:26N 38°42' W 009°14'0 0.0
2017-Aug-31 12:00N 38°42' W 009°14'0 0.0
2017-Aug-31 11:15N 38°42' W 009°14'0 0.0
2017-Aug-31 10:57N 38°42' W 009°14'0 0.0
2017-Aug-31 10:18N 38°42' W 009°14'0 0.0
2017-Aug-31 10:00N 38°42' W 009°14'0 0.0
2017-Aug-31 09:26N 38°42' W 009°14'0 0.0
2017-Aug-31 08:59N 38°42' W 009°14'0 0.0
2017-Aug-31 08:29N 38°42' W 009°14'0 0.0
2017-Aug-31 08:00N 38°42' W 009°14'0 0.0
2017-Aug-31 07:14N 38°42' W 009°14'0 0.0
2017-Aug-31 06:59N 38°42' W 009°14'1 1.2
2017-Aug-31 06:30N 38°41' W 009°14'1 0.9
2017-Aug-31 05:52N 38°42' W 009°14'1 3.8
2017-Aug-31 05:29N 38°41' W 009°12'1 0.4
2017-Aug-31 02:10N 38°42' W 009°14'0 0.0
2017-Aug-31 01:58N 38°42' W 009°14'1 2.9
2017-Aug-31 01:30N 38°41' W 009°13'1 2.5
2017-Aug-31 00:58N 38°42' W 009°14'1 0.9
2017-Aug-30 23:44N 38°41' W 009°13'1 3.0
2017-Aug-30 23:23N 38°42' W 009°14'0 0.0
2017-Aug-30 22:53N 38°42' W 009°14'0 0.0
2017-Aug-30 22:23N 38°42' W 009°14'0 0.0
2017-Aug-30 21:57N 38°42' W 009°14'0 0.0
2017-Aug-30 21:24N 38°42' W 009°14'0 0.0
2017-Aug-30 20:06N 38°42' W 009°14'0 0.0
2017-Aug-30 19:33N 38°42' W 009°14'0 0.0
2017-Aug-30 19:21N 38°42' W 009°14'0 0.0
2017-Aug-30 19:00N 38°42' W 009°14'0 0.0
2017-Aug-30 18:27N 38°42' W 009°14'0 0.0
2017-Aug-30 17:45N 38°42' W 009°14'0 0.0
2017-Aug-30 17:27N 38°42' W 009°14'0 0.0
2017-Aug-30 16:57N 38°42' W 009°14'0 0.0
2017-Aug-30 16:27N 38°42' W 009°14'1 2.4
2017-Aug-30 15:58N 38°41' W 009°13'0 1.0
2017-Aug-30 15:30N 38°41' W 009°13'1 0.8
2017-Aug-30 14:37N 38°42' W 009°14'0 0.0
2017-Aug-30 14:19N 38°42' W 009°14'0 0.0
2017-Aug-30 13:34N 38°42' W 009°14'0 0.0
2017-Aug-30 13:22N 38°42' W 009°14'0 0.0
2017-Aug-30 12:55N 38°42' W 009°14'0 0.0
2017-Aug-30 12:25N 38°42' W 009°14'0 0.0
2017-Aug-30 11:55N 38°42' W 009°14'0 0.0
2017-Aug-30 11:25N 38°42' W 009°14'0 0.0
2017-Aug-30 10:58N 38°42' W 009°14'0 0.0
2017-Aug-30 10:09N 38°42' W 009°14'1 9.3
2017-Aug-30 10:00N 38°41' W 009°13'1 1.6
2017-Aug-30 09:28N 38°41' W 009°12'1 2.3
2017-Aug-30 09:00N 38°41' W 009°13'1 1.8
2017-Aug-30 08:18N 38°42' W 009°14'0 0.0
2017-Aug-30 07:46N 38°42' W 009°14'0 0.0
2017-Aug-30 07:19N 38°42' W 009°14'1 1.8
2017-Aug-30 06:59N 38°41' W 009°14'1 1.1
2017-Aug-30 06:28N 38°42' W 009°14'0 0.3
2017-Aug-30 05:59N 38°42' W 009°14'0 1.0
2017-Aug-30 05:30N 38°41' W 009°13'0 0.1
2017-Aug-29 23:08N 38°42' W 009°14'1 3.6
2017-Aug-29 22:59N 38°41' W 009°13'1 1.2
2017-Aug-29 22:23N 38°42' W 009°14'0 0.2
2017-Aug-29 21:58N 38°42' W 009°14'0 0.1
2017-Aug-29 21:21N 38°42' W 009°14'2 6.9
2017-Aug-29 21:00N 38°41' W 009°11'2 3.6
2017-Aug-29 20:20N 38°42' W 009°14'0 0.0
2017-Aug-29 19:56N 38°42' W 009°14'0 0.0
2017-Aug-29 19:05N 38°42' W 009°14'0 0.0
2017-Aug-29 18:53N 38°42' W 009°14'0 0.0
2017-Aug-29 18:17N 38°42' W 009°14'0 0.0
2017-Aug-29 17:02N 38°42' W 009°14'0 0.0
2017-Aug-29 16:59N 38°42' W 009°14'0 0.0
2017-Aug-29 16:20N 38°42' W 009°14'1 2.9
2017-Aug-29 16:00N 38°41' W 009°13'1 1.7
2017-Aug-29 15:25N 38°42' W 009°14'0 0.0
2017-Aug-29 14:52N 38°42' W 009°14'0 1.1
2017-Aug-29 14:30N 38°41' W 009°14'0 0.7
2017-Aug-29 13:52N 38°42' W 009°14'1 2.4
2017-Aug-29 13:29N 38°41' W 009°13'1 1.7
2017-Aug-29 12:56N 38°42' W 009°14'0 0.0
2017-Aug-29 12:17N 38°42' W 009°14'0 0.0
2017-Aug-29 11:05N 38°42' W 009°14'0 0.0
2017-Aug-29 09:50N 38°42' W 009°14'0 0.0
2017-Aug-29 08:53N 38°42' W 009°14'0 0.0
2017-Aug-29 08:03N 38°42' W 009°14'0 5.1
2017-Aug-29 07:59N 38°42' W 009°14'1 1.5
2017-Aug-29 07:28N 38°41' W 009°13'1 1.4
2017-Aug-29 06:41N 38°42' W 009°14'0 0.0
2017-Aug-29 06:17N 38°42' W 009°14'0 0.0
2017-Aug-29 06:00N 38°42' W 009°14'0 0.2
2017-Aug-29 05:30N 38°42' W 009°14'0 0.4
2017-Aug-29 04:59N 38°42' W 009°14'0 0.4
2017-Aug-29 04:21N 38°42' W 009°14'0 0.0
2017-Aug-29 03:51N 38°42' W 009°14'0 0.0
2017-Aug-29 03:30N 38°42' W 009°14'0 0.0
2017-Aug-29 02:33N 38°42' W 009°14'0 0.0
2017-Aug-28 23:49N 38°42' W 009°14'0 0.0
2017-Aug-28 23:19N 38°42' W 009°14'0 0.0
2017-Aug-28 22:53N 38°42' W 009°14'0 0.0
2017-Aug-28 22:20N 38°42' W 009°14'0 0.0
2017-Aug-28 21:56N 38°42' W 009°14'1 1.8
2017-Aug-28 21:10N 38°41' W 009°13'1 3.9
2017-Aug-28 20:54N 38°41' W 009°14'1 1.1
2017-Aug-28 20:17N 38°42' W 009°14'0 0.0
2017-Aug-28 19:56N 38°42' W 009°14'0 0.0
2017-Aug-28 19:26N 38°42' W 009°14'0 0.0
2017-Aug-28 18:59N 38°42' W 009°14'0 0.3
2017-Aug-28 18:25N 38°42' W 009°14'0 0.3
2017-Aug-28 17:52N 38°42' W 009°14'0 0.0
2017-Aug-28 16:58N 38°42' W 009°14'0 0.0
2017-Aug-28 16:28N 38°42' W 009°14'1 2.4
2017-Aug-28 15:57N 38°41' W 009°14'1 1.2
2017-Aug-28 14:56N 38°42' W 009°14'2 1.6
2017-Aug-28 13:45N 38°42' W 009°12'2 3.7
2017-Aug-28 13:15N 38°42' W 009°14'0 0.0
2017-Aug-28 12:17N 38°42' W 009°14'1 4.5
2017-Aug-28 11:59N 38°41' W 009°13'1 2.8
2017-Aug-28 11:29N 38°42' W 009°14'0 0.0
2017-Aug-28 10:41N 38°42' W 009°14'0 0.0
2017-Aug-28 10:29N 38°42' W 009°14'0 0.0
2017-Aug-28 09:26N 38°42' W 009°14'2 2.2
2017-Aug-28 08:29N 38°41' W 009°12'2 4.3
2017-Aug-28 07:58N 38°42' W 009°14'3 3.2
2017-Aug-28 07:10N 38°42' W 009°11'316.2
2017-Aug-28 07:00N 38°42' W 009°14'0 0.2
2017-Aug-28 06:23N 38°42' W 009°14'0 0.0
2017-Aug-28 05:58N 38°42' W 009°14'0 0.0
2017-Aug-28 05:09N 38°42' W 009°14'0 0.0
2017-Aug-28 04:58N 38°42' W 009°14'0 0.0
2017-Aug-28 03:20N 38°42' W 009°14'0 0.0
2017-Aug-28 02:32N 38°42' W 009°14'0 0.0
2017-Aug-28 02:20N 38°42' W 009°14'0 0.0
2017-Aug-28 01:56N 38°42' W 009°14'0 0.0
2017-Aug-28 00:44N 38°42' W 009°14'0 0.0
2017-Aug-28 00:20N 38°42' W 009°14'0 0.0
2017-Aug-27 23:59N 38°42' W 009°14'0 0.0
2017-Aug-27 23:20N 38°42' W 009°14'0 0.0
2017-Aug-27 22:53N 38°42' W 009°14'0 0.0
2017-Aug-27 22:27N 38°42' W 009°14'0 0.1
2017-Aug-27 21:44N 38°42' W 009°14'0 0.2
2017-Aug-27 21:27N 38°42' W 009°14'0 0.5
2017-Aug-27 20:55N 38°41' W 009°14'0 0.2
2017-Aug-27 19:52N 38°42' W 009°14'0 0.0
2017-Aug-27 17:46N 38°42' W 009°14'0 0.5
2017-Aug-27 17:23N 38°42' W 009°14'0 0.1
2017-Aug-27 14:45N 38°42' W 009°14'0 0.0
2017-Aug-27 14:15N 38°42' W 009°14'0 0.0
2017-Aug-27 13:00N 38°42' W 009°14'0 0.0
2017-Aug-27 11:33N 38°42' W 009°14'0 0.0
2017-Aug-27 11:03N 38°42' W 009°14'0 0.0
2017-Aug-27 10:57N 38°42' W 009°14'0 0.0
2017-Aug-27 10:21N 38°42' W 009°14'0 0.0
2017-Aug-27 09:48N 38°42' W 009°14'0 0.0
2017-Aug-27 08:42N 38°42' W 009°14'0 0.0
2017-Aug-27 08:24N 38°42' W 009°14'0 0.0
2017-Aug-27 08:00N 38°42' W 009°14'0 0.0
2017-Aug-27 07:22N 38°42' W 009°14'0 0.0
2017-Aug-27 06:54N 38°42' W 009°14'0 0.0
2017-Aug-27 06:07N 38°42' W 009°14'1 8.3
2017-Aug-27 06:00N 38°41' W 009°13'1 1.3
2017-Aug-27 05:14N 38°42' W 009°14'0 0.0
2017-Aug-27 04:56N 38°42' W 009°14'0 0.0
2017-Aug-27 04:17N 38°42' W 009°14'0 0.0
2017-Aug-27 03:56N 38°42' W 009°14'0 0.0
2017-Aug-27 02:50N 38°42' W 009°14'0 0.0
2017-Aug-27 02:29N 38°42' W 009°14'0 0.0
2017-Aug-27 01:05N 38°42' W 009°14'0 0.0
2017-Aug-27 00:50N 38°42' W 009°14'0 0.0
2017-Aug-27 00:26N 38°42' W 009°14'0 0.0
2017-Aug-26 22:59N 38°42' W 009°14'0 0.0
2017-Aug-26 22:29N 38°42' W 009°14'0 0.0
2017-Aug-26 21:44N 38°42' W 009°14'0 0.0
2017-Aug-26 21:29N 38°42' W 009°14'0 0.0
2017-Aug-26 20:53N 38°42' W 009°14'0 0.0
2017-Aug-26 20:24N 38°42' W 009°14'0 0.0
2017-Aug-26 16:36N 38°42' W 009°14'0 0.0
2017-Aug-26 16:28N 38°42' W 009°14'0 0.0
2017-Aug-26 16:00N 38°42' W 009°14'2 3.6
2017-Aug-26 15:29N 38°41' W 009°12'2 2.7
2017-Aug-26 14:48N 38°42' W 009°14'0 0.0
2017-Aug-26 13:59N 38°42' W 009°14'0 0.0
2017-Aug-26 12:50N 38°42' W 009°14'0 0.0
2017-Aug-26 09:59N 38°42' W 009°14'0 0.0
2017-Aug-26 09:14N 38°42' W 009°14'0 0.0
2017-Aug-26 08:47N 38°42' W 009°14'0 0.0
2017-Aug-26 08:23N 38°42' W 009°14'0 0.0
2017-Aug-26 07:59N 38°42' W 009°14'0 0.1
2017-Aug-26 07:30N 38°42' W 009°14'2 4.3
2017-Aug-26 06:57N 38°41' W 009°11'2 4.2
2017-Aug-26 06:23N 38°42' W 009°14'0 0.0
2017-Aug-26 05:47N 38°42' W 009°14'0 0.0
2017-Aug-26 05:20N 38°42' W 009°14'0 0.0
2017-Aug-26 04:59N 38°42' W 009°14'0 0.0
2017-Aug-26 04:29N 38°42' W 009°14'0 0.0
2017-Aug-26 03:43N 38°42' W 009°14'0 0.0
2017-Aug-26 03:19N 38°42' W 009°14'0 0.0
2017-Aug-26 02:58N 38°42' W 009°14'0 0.0
2017-Aug-26 02:25N 38°42' W 009°14'0 0.0
2017-Aug-26 01:49N 38°42' W 009°14'0 0.0
2017-Aug-26 01:19N 38°42' W 009°14'0 0.0
2017-Aug-26 00:52N 38°42' W 009°14'0 0.0
2017-Aug-26 00:19N 38°42' W 009°14'0 0.0
2017-Aug-25 23:55N 38°42' W 009°14'0 0.0
2017-Aug-25 23:28N 38°42' W 009°14'0 0.0
2017-Aug-25 22:55N 38°42' W 009°14'0 0.0
2017-Aug-25 22:25N 38°42' W 009°14'1 1.5
2017-Aug-25 21:57N 38°41' W 009°13'1 0.8
2017-Aug-25 21:02N 38°42' W 009°14'0 0.0
2017-Aug-25 20:50N 38°42' W 009°14'1 2.0
2017-Aug-25 20:30N 38°41' W 009°13'1 1.2
2017-Aug-25 19:55N 38°42' W 009°14'0 0.0
2017-Aug-25 19:25N 38°42' W 009°14'0 0.0
2017-Aug-25 18:55N 38°42' W 009°14'0 0.0
2017-Aug-25 18:25N 38°42' W 009°14'0 0.3
2017-Aug-25 17:59N 38°42' W 009°14'0 0.1
2017-Aug-25 17:28N 38°42' W 009°14'5 8.9
2017-Aug-25 16:57N 38°42' W 009°08'5 9.9
2017-Aug-25 16:30N 38°42' W 009°14'1 2.6
2017-Aug-25 16:00N 38°41' W 009°12'1 1.9
2017-Aug-25 15:29N 38°41' W 009°14'0 0.9
2017-Aug-25 15:00N 38°42' W 009°14'4 8.0
2017-Aug-25 14:30N 38°42' W 009°09'4 2.2
2017-Aug-25 12:39N 38°42' W 009°14'0 0.0
2017-Aug-25 12:27N 38°42' W 009°14'0 0.0
2017-Aug-25 11:45N 38°42' W 009°14'0 0.0
2017-Aug-25 11:15N 38°42' W 009°14'0 0.0
2017-Aug-25 10:51N 38°42' W 009°14'0 0.0
2017-Aug-25 09:45N 38°42' W 009°14'1 2.6
2017-Aug-25 09:29N 38°41' W 009°13'2 3.1
2017-Aug-25 09:00N 38°41' W 009°12'2 3.8
2017-Aug-25 08:30N 38°42' W 009°14'0 0.5
2017-Aug-25 08:00N 38°42' W 009°14'0 0.0
2017-Aug-25 07:27N 38°42' W 009°14'0 0.0
2017-Aug-25 05:08N 38°42' W 009°14'0 1.4
2017-Aug-25 04:59N 38°42' W 009°14'0 0.3
2017-Aug-25 04:17N 38°42' W 009°14'0 0.1
2017-Aug-25 03:59N 38°42' W 009°14'0 0.0
2017-Aug-25 03:24N 38°42' W 009°14'0 0.0
2017-Aug-25 03:00N 38°42' W 009°14'0 0.0
2017-Aug-25 02:18N 38°42' W 009°14'0 1.2
2017-Aug-25 02:01N 38°42' W 009°14'0 0.1
2017-Aug-24 21:24N 38°42' W 009°14'1 1.4
2017-Aug-24 21:00N 38°41' W 009°14'1 1.0
2017-Aug-24 20:24N 38°42' W 009°14'0 0.0
2017-Aug-24 19:30N 38°42' W 009°14'0 0.0
2017-Aug-24 18:54N 38°42' W 009°14'0 0.0
2017-Aug-24 17:24N 38°42' W 009°14'1 2.0
2017-Aug-24 16:59N 38°41' W 009°13'1 1.5
2017-Aug-24 16:28N 38°42' W 009°14'0 0.0
2017-Aug-24 15:34N 38°42' W 009°14'0 0.0
2017-Aug-24 15:13N 38°42' W 009°14'0 0.0
2017-Aug-24 14:58N 38°42' W 009°14'0 0.0
2017-Aug-24 14:25N 38°42' W 009°14'0 0.0
2017-Aug-24 13:57N 38°42' W 009°14'0 0.0
2017-Aug-24 13:28N 38°42' W 009°14'510.5
2017-Aug-24 12:57N 38°42' W 009°07'5 8.6
2017-Aug-24 12:19N 38°42' W 009°14'0 0.0
2017-Aug-24 11:58N 38°42' W 009°14'2 3.9
2017-Aug-24 11:21N 38°41' W 009°11'0 0.2
2017-Aug-24 11:00N 38°41' W 009°11'2 4.7
2017-Aug-24 10:29N 38°42' W 009°14'2 3.2
2017-Aug-24 09:56N 38°41' W 009°12'0 0.5
2017-Aug-24 09:28N 38°41' W 009°12'2 0.7
2017-Aug-24 07:18N 38°42' W 009°14'0 0.0
2017-Aug-24 06:07N 38°42' W 009°14'0 2.8
2017-Aug-24 05:58N 38°41' W 009°14'0 0.9
2017-Aug-24 05:29N 38°42' W 009°14'0 0.0
2017-Aug-24 00:11N 38°42' W 009°14'2 8.8
2017-Aug-24 00:00N 38°41' W 009°13'  

Dump ship's entire track history